Time;durP1;ratioP1;P1;durP2;ratioP2;P2;SDS_P1;SDS_P2;PMS_P1;PMS_P2;Temp;Humidity;BMP_temperature;BMP_pressure;BME280_temperature;BME280_humidity;BME280_pressure;Samples;Min_cycle;Max_cycle;Signal;HPM_P1;HPM_P2
2021/01/31 00:02:52;;;;;;;20.60;9.73;;;11.30;70.60;;;;;;6194890;28;20026;-75
2021/01/31 00:05:55;;;;;;;22.92;9.95;;;11.30;70.70;;;;;;6228189;28;20033;-76
2021/01/31 00:08:57;;;;;;;23.52;10.90;;;11.30;70.80;;;;;;6227870;28;20048;-76
2021/01/31 00:11:57;;;;;;;19.75;10.95;;;11.30;70.80;;;;;;6211186;28;20038;-76
2021/01/31 00:14:58;;;;;;;22.88;11.00;;;11.30;71.00;;;;;;6210487;28;20037;-76
2021/01/31 00:18:00;;;;;;;18.95;9.80;;;11.30;71.00;;;;;;6227979;28;20037;-76
2021/01/31 00:21:01;;;;;;;22.45;10.57;;;11.30;71.00;;;;;;6186388;28;20121;-76
2021/01/31 00:24:03;;;;;;;22.13;10.18;;;11.40;71.00;;;;;;6203513;28;20026;-76
2021/01/31 00:27:04;;;;;;;22.38;10.13;;;11.40;70.80;;;;;;6186194;28;20042;-76
2021/01/31 00:30:18;;;;;;;21.23;10.70;;;11.30;70.80;;;;;;6227675;28;20107;-76
2021/01/31 00:33:21;;;;;;;23.08;10.93;;;11.30;71.00;;;;;;6208157;28;20041;-76
2021/01/31 00:36:22;;;;;;;21.00;10.23;;;11.30;71.00;;;;;;6191459;28;20442;-76
2021/01/31 00:39:23;;;;;;;17.98;9.32;;;11.30;71.00;;;;;;6182747;28;20053;-76
2021/01/31 00:42:24;;;;;;;21.27;9.25;;;11.30;71.10;;;;;;6207360;28;20038;-75
2021/01/31 00:45:27;;;;;;;22.67;9.73;;;11.30;71.00;;;;;;6225795;28;20364;-76
2021/01/31 00:48:28;;;;;;;21.33;9.75;;;11.30;71.00;;;;;;6208806;28;20042;-76
2021/01/31 00:51:29;;;;;;;18.25;9.55;;;11.30;70.90;;;;;;6184412;28;20097;-75
2021/01/31 00:54:30;;;;;;;19.17;9.85;;;11.30;70.90;;;;;;6183956;28;20038;-77
2021/01/31 00:57:30;;;;;;;19.45;8.60;;;11.30;71.90;;;;;;6202285;28;20053;-75
2021/01/31 01:00:35;;;;;;;16.98;8.45;;;11.30;70.80;;;;;;6208241;28;20076;-76
2021/01/31 01:03:39;;;;;;;13.10;7.18;;;11.30;70.70;;;;;;6207682;28;20045;-76
2021/01/31 01:06:40;;;;;;;15.90;8.40;;;11.30;70.70;;;;;;6207832;28;20042;-77
2021/01/31 01:09:41;;;;;;;17.60;8.23;;;11.30;70.70;;;;;;6207708;28;20515;-77
2021/01/31 01:12:42;;;;;;;19.20;7.97;;;11.30;70.70;;;;;;6207539;28;20029;-76
2021/01/31 01:15:43;;;;;;;16.67;6.85;;;11.30;70.70;;;;;;6191485;28;20475;-76
2021/01/31 01:18:43;;;;;;;14.32;7.30;;;11.30;70.60;;;;;;6225251;28;20030;-77
2021/01/31 01:21:45;;;;;;;12.80;7.05;;;11.40;70.70;;;;;;6207736;28;20483;-76
2021/01/31 01:24:52;;;;;;;14.63;7.53;;;11.40;70.50;;;;;;6208268;28;20056;-76
2021/01/31 01:27:54;;;;;;;12.98;6.72;;;11.40;70.40;;;;;;6225747;28;20041;-76
2021/01/31 01:30:55;;;;;;;12.20;7.35;;;11.40;70.30;;;;;;6192028;28;20115;-76
2021/01/31 01:33:55;;;;;;;13.45;6.75;;;11.40;70.00;;;;;;6207892;28;20482;-76
2021/01/31 01:36:56;;;;;;;14.38;7.57;;;11.40;70.10;;;;;;6225581;28;20038;-76
2021/01/31 01:39:57;;;;;;;12.80;6.50;;;11.40;70.20;;;;;;6207479;28;20057;-77
2021/01/31 01:42:59;;;;;;;12.70;6.55;;;11.40;70.00;;;;;;6207375;28;20054;-77
2021/01/31 01:46:19;;;;;;;10.43;6.15;;;11.40;69.90;;;;;;6206222;28;20037;-76
2021/01/31 01:49:24;;;;;;;;;;;11.30;69.80;;;;;;6207620;28;20379;-77
2021/01/31 01:52:34;;;;;;;12.75;5.72;;;11.40;69.70;;;;;;6209168;28;19971;-76
2021/01/31 01:55:41;;;;;;;11.65;5.68;;;11.40;69.70;;;;;;6225715;28;20038;-76
2021/01/31 01:58:43;;;;;;;11.43;5.90;;;11.40;69.70;;;;;;6210030;28;20116;-76
2021/01/31 02:01:56;;;;;;;10.23;5.70;;;11.40;69.70;;;;;;6233326;28;20383;-77
2021/01/31 02:05:02;;;;;;;11.15;5.13;;;11.40;69.60;;;;;;6229492;28;20125;-76
2021/01/31 02:08:04;;;;;;;13.93;6.22;;;11.40;69.50;;;;;;6214164;28;20057;-75
2021/01/31 02:11:05;;;;;;;11.38;5.93;;;11.50;69.40;;;;;;6206641;28;20033;-76
2021/01/31 02:14:10;;;;;;;8.23;4.75;;;11.50;69.30;;;;;;6205444;28;20129;-76
2021/01/31 02:17:15;;;;;;;9.10;5.03;;;11.50;69.20;;;;;;6196762;28;20048;-75
2021/01/31 02:21:04;;;;;;;11.55;5.07;;;11.50;69.10;;;;;;6210667;28;20042;-76
2021/01/31 02:24:39;;;;;;;9.30;5.03;;;11.40;69.00;;;;;;6124590;29;20122;-76
2021/01/31 02:28:01;;;;;;;11.38;5.13;;;11.40;69.00;;;;;;6105413;29;20060;-75
2021/01/31 02:31:22;;;;;;;7.03;4.30;;;11.30;69.20;;;;;;6105157;29;20044;-75
2021/01/31 02:34:41;;;;;;;10.65;4.80;;;11.40;69.40;;;;;;6107761;29;20074;-76
2021/01/31 02:37:47;;;;;;;10.05;5.35;;;11.30;69.40;;;;;;6105381;29;20040;-77
2021/01/31 02:41:16;;;;;;;10.07;4.43;;;11.30;69.30;;;;;;6103475;29;20044;-76
2021/01/31 02:44:22;;;;;;;7.78;4.13;;;11.30;69.30;;;;;;6085714;29;20040;-75
2021/01/31 02:47:24;;;;;;;8.77;4.22;;;11.30;69.30;;;;;;6101103;29;20144;-76
2021/01/31 02:50:34;;;;;;;6.35;4.07;;;11.30;69.30;;;;;;6101562;29;20036;-76
2021/01/31 02:53:40;;;;;;;7.75;3.92;;;11.30;69.30;;;;;;6100442;29;20212;-76
2021/01/31 02:57:05;;;;;;;9.23;4.57;;;11.30;69.20;;;;;;6100237;29;20040;-76
2021/01/31 03:00:17;;;;;;;10.40;5.13;;;11.30;69.30;;;;;;6179984;28;20048;-76
2021/01/31 03:03:42;;;;;;;7.90;4.45;;;11.30;69.40;;;;;;6164760;28;20475;-76
2021/01/31 03:06:52;;;;;;;8.52;4.60;;;11.30;69.40;;;;;;6181254;28;20126;-75
2021/01/31 03:10:12;;;;;;;11.45;4.32;;;11.30;69.30;;;;;;6165548;28;20034;-76
2021/01/31 03:13:20;;;;;;;12.65;4.38;;;11.40;69.30;;;;;;6184942;28;20034;-76
2021/01/31 03:16:30;;;;;;;9.50;4.25;;;11.40;69.30;;;;;;6205247;28;20049;-75
2021/01/31 03:19:40;;;;;;;7.38;4.43;;;11.40;69.20;;;;;;6204760;28;20100;-76
2021/01/31 03:22:57;;;;;;;10.68;4.68;;;11.40;69.20;;;;;;6222519;28;20044;-76
2021/01/31 03:26:05;;;;;;;9.90;4.15;;;11.40;69.20;;;;;;6203624;28;20284;-76
2021/01/31 03:29:06;;;;;;;9.15;4.32;;;11.40;69.20;;;;;;6203221;28;20053;-76
2021/01/31 03:32:21;;;;;;;7.82;3.55;;;11.40;69.20;;;;;;6203119;28;20353;-76
2021/01/31 03:35:29;;;;;;;7.72;3.85;;;11.40;69.20;;;;;;6220750;28;20367;-76
2021/01/31 03:38:43;;;;;;;10.20;4.18;;;11.30;69.30;;;;;;6221568;28;20411;-76
2021/01/31 03:41:44;;;;;;;14.07;5.03;;;11.30;69.40;;;;;;6186845;28;20041;-76
2021/01/31 03:44:45;;;;;;;9.05;3.88;;;11.40;69.40;;;;;;6220998;28;20030;-77
2021/01/31 03:48:05;;;;;;;9.90;4.50;;;11.40;69.20;;;;;;6204194;28;20034;-76
2021/01/31 03:51:06;;;;;;;11.75;4.68;;;11.40;69.20;;;;;;6203720;28;20099;-76
2021/01/31 03:54:09;;;;;;;6.95;4.28;;;11.50;69.00;;;;;;6220087;28;20092;-76
2021/01/31 03:57:37;;;;;;;8.77;5.00;;;11.40;68.80;;;;;;6202015;28;20053;-75
2021/01/31 04:00:46;;;;;;;11.05;4.70;;;11.40;68.90;;;;;;6122048;29;20047;-76
2021/01/31 04:04:05;;;;;;;8.57;4.15;;;11.40;68.80;;;;;;6106547;29;20059;-75
2021/01/31 04:07:07;;;;;;;8.65;4.65;;;11.30;68.80;;;;;;6108392;29;20046;-76
2021/01/31 04:10:08;;;;;;;13.18;5.35;;;11.30;68.90;;;;;;6124184;29;20040;-76
2021/01/31 04:13:11;;;;;;;17.45;6.25;;;11.30;69.00;;;;;;6099248;28;20491;-76
2021/01/31 04:16:12;;;;;;;12.90;5.63;;;11.30;68.90;;;;;;6120371;29;20122;-76
2021/01/31 04:19:13;;;;;;;15.38;6.32;;;11.30;69.50;;;;;;6120099;29;20038;-75
2021/01/31 04:22:14;;;;;;;16.30;7.15;;;11.20;68.90;;;;;;6135615;29;20113;-75
2021/01/31 04:25:16;;;;;;;13.93;6.40;;;11.20;69.20;;;;;;6120266;29;20063;-75
2021/01/31 04:28:20;;;;;;;16.13;6.35;;;11.10;69.20;;;;;;6136401;29;20028;-75
2021/01/31 04:31:21;;;;;;;15.75;6.63;;;11.10;69.30;;;;;;6134798;29;20122;-75
2021/01/31 04:34:22;;;;;;;12.15;6.22;;;11.00;69.40;;;;;;6150792;29;20035;-75
2021/01/31 04:37:23;;;;;;;12.43;5.90;;;11.00;69.60;;;;;;6176162;28;20030;-75
2021/01/31 04:40:25;;;;;;;12.25;6.03;;;11.00;69.60;;;;;;6226596;28;20478;-75
2021/01/31 04:43:26;;;;;;;15.18;6.18;;;10.90;69.70;;;;;;6209519;28;20063;-75
2021/01/31 04:46:42;;;;;;;9.13;4.97;;;10.90;69.60;;;;;;6227038;28;20026;-75
2021/01/31 04:50:10;;;;;;;13.10;6.00;;;10.90;69.80;;;;;;6208392;28;20033;-76
2021/01/31 04:53:33;;;;;;;14.37;6.33;;;10.80;69.80;;;;;;6223400;28;20034;-76
2021/01/31 04:56:43;;;;;;;13.60;5.72;;;10.80;69.90;;;;;;6223012;28;20041;-75
2021/01/31 04:59:48;;;;;;;13.90;5.75;;;10.80;70.00;;;;;;6224052;28;20464;-77
2021/01/31 05:02:57;;;;;;;12.75;5.78;;;10.70;69.90;;;;;;6225850;28;20058;-75
2021/01/31 05:06:14;;;;;;;12.98;5.47;;;10.70;70.00;;;;;;6191517;28;20100;-75
2021/01/31 05:09:22;;;;;;;10.30;5.03;;;10.70;70.10;;;;;;6191631;28;20037;-75
2021/01/31 05:12:53;;;;;;;11.32;5.03;;;10.60;70.00;;;;;;6182407;28;20115;-75
2021/01/31 05:16:10;;;;;;;7.75;4.70;;;10.60;70.20;;;;;;6181701;28;20258;-76
2021/01/31 05:19:14;;;;;;;12.57;5.13;;;10.60;70.40;;;;;;6205045;28;20117;-76
2021/01/31 05:22:19;;;;;;;9.77;4.85;;;10.50;70.30;;;;;;6224106;28;20191;-75
2021/01/31 05:25:23;;;;;;;9.20;4.30;;;10.50;70.50;;;;;;6206732;28;20116;-75
2021/01/31 05:28:27;;;;;;;9.52;4.50;;;10.50;70.50;;;;;;6206692;28;20100;-76
2021/01/31 05:31:32;;;;;;;12.60;4.82;;;10.50;70.40;;;;;;6206670;28;20026;-76
2021/01/31 05:34:45;;;;;;;12.55;5.35;;;10.50;70.40;;;;;;6206207;28;20197;-76
2021/01/31 05:37:47;;;;;;;8.63;4.38;;;10.50;70.30;;;;;;6205710;28;20065;-75
2021/01/31 05:40:48;;;;;;;6.85;4.05;;;10.50;70.30;;;;;;6223813;28;20040;-76
2021/01/31 05:44:24;;;;;;;8.10;3.72;;;10.50;70.30;;;;;;6223336;28;20033;-76
2021/01/31 05:47:31;;;;;;;8.85;4.80;;;10.40;70.50;;;;;;6084872;29;20082;-75
2021/01/31 05:50:40;;;;;;;8.88;4.57;;;10.40;70.40;;;;;;6085943;29;20032;-75
2021/01/31 05:53:42;;;;;;;12.25;4.93;;;10.40;70.60;;;;;;6076166;29;20035;-76
2021/01/31 05:56:44;;;;;;;9.40;4.95;;;10.40;70.60;;;;;;6085206;29;20074;-76
2021/01/31 05:59:45;;;;;;;8.80;4.35;;;10.30;70.60;;;;;;6100978;29;20070;-76
2021/01/31 06:03:07;;;;;;;10.45;4.75;;;10.30;70.50;;;;;;6101416;29;20036;-76
2021/01/31 06:06:31;;;;;;;11.70;5.10;;;10.30;70.70;;;;;;6085543;29;20040;-76
2021/01/31 06:09:46;;;;;;;14.00;5.15;;;10.20;70.50;;;;;;6100934;29;20047;-77
2021/01/31 06:12:48;;;;;;;11.40;5.00;;;10.20;70.60;;;;;;6085038;29;20036;-77
2021/01/31 06:16:01;;;;;;;9.18;4.35;;;10.20;70.60;;;;;;6099460;29;20040;-76
2021/01/31 06:19:30;;;;;;;11.00;4.35;;;10.10;70.60;;;;;;6091447;29;20036;-76
2021/01/31 06:22:46;;;;;;;7.45;3.72;;;10.20;70.70;;;;;;6125803;28;20042;-76
2021/01/31 06:25:46;;;;;;;9.55;4.15;;;10.10;70.60;;;;;;6205326;28;20034;-76
2021/01/31 06:28:51;;;;;;;6.55;3.83;;;10.10;70.40;;;;;;6204063;28;20072;-77
2021/01/31 06:32:09;;;;;;;8.98;4.05;;;10.10;70.40;;;;;;6187685;28;20034;-76
2021/01/31 06:35:13;;;;;;;9.57;4.15;;;10.10;70.40;;;;;;6202563;28;20455;-76
2021/01/31 06:38:36;;;;;;;7.97;3.90;;;10.10;70.40;;;;;;6222869;28;20387;-76
2021/01/31 06:42:10;;;;;;;9.40;4.50;;;10.00;70.30;;;;;;6206573;28;20037;-77
2021/01/31 06:45:35;;;;;;;6.70;4.00;;;10.00;70.30;;;;;;6205287;28;20034;-76
2021/01/31 06:48:42;;;;;;;7.47;3.58;;;10.00;70.30;;;;;;6227819;28;20042;-78
2021/01/31 06:52:11;;;;;;;7.53;3.70;;;10.10;70.40;;;;;;6229177;28;20076;-76
2021/01/31 06:55:31;;;;;;;8.70;3.47;;;10.00;70.20;;;;;;6224729;28;20042;-77
2021/01/31 06:58:58;;;;;;;8.60;4.07;;;10.10;70.20;;;;;;6223652;28;20045;-77
2021/01/31 07:02:37;;;;;;;7.97;3.70;;;10.10;70.10;;;;;;6077073;29;20123;-77
2021/01/31 07:06:02;;;;;;;7.93;3.63;;;10.10;70.00;;;;;;6076699;29;20033;-77
2021/01/31 07:09:24;;;;;;;9.50;4.07;;;10.20;69.90;;;;;;6075212;29;20048;-78
2021/01/31 07:12:34;;;;;;;8.50;4.05;;;10.20;69.80;;;;;;6093525;29;20047;-78
2021/01/31 07:15:57;;;;;;;6.95;3.83;;;10.30;69.80;;;;;;6076228;29;20041;-76
2021/01/31 07:19:22;;;;;;;7.05;3.95;;;10.30;69.60;;;;;;6063922;29;20051;-76
2021/01/31 07:22:46;;;;;;;9.05;4.18;;;10.40;69.50;;;;;;6077941;29;20044;-76
2021/01/31 07:25:57;;;;;;;10.20;4.60;;;10.40;69.20;;;;;;6093726;29;20041;-76
2021/01/31 07:29:02;;;;;;;10.73;4.60;;;10.40;69.00;;;;;;6072698;29;20118;-76
2021/01/31 07:32:11;;;;;;;7.53;4.20;;;10.50;69.00;;;;;;6100908;29;20382;-77
2021/01/31 07:35:12;;;;;;;;;;;10.50;68.90;;;;;;6085641;29;20044;-75
2021/01/31 07:38:25;;;;;;;10.38;4.95;;;10.50;69.50;;;;;;6136246;28;19913;-75
2021/01/31 07:41:28;;;;;;;11.27;3.75;;;10.50;68.50;;;;;;6179622;28;20042;-76
2021/01/31 07:44:35;;;;;;;9.02;3.67;;;10.60;68.50;;;;;;6179058;28;20108;-77
2021/01/31 07:47:36;;;;;;;8.98;3.58;;;10.70;68.60;;;;;;6200336;28;20061;-81
2021/01/31 07:50:39;;;;;;;6.93;4.22;;;10.80;68.50;;;;;;6202640;28;20042;-76
2021/01/31 07:53:42;;;;;;;7.55;4.22;;;10.80;68.10;;;;;;6202590;28;20050;-77
2021/01/31 07:56:43;;;;;;;9.75;4.25;;;10.80;67.60;;;;;;6185021;28;20058;-76
2021/01/31 07:59:44;;;;;;;9.75;4.85;;;10.90;67.40;;;;;;6224293;28;20046;-76
2021/01/31 08:03:16;;;;;;;8.45;4.57;;;10.90;67.50;;;;;;6209349;28;20037;-78
2021/01/31 08:06:21;;;;;;;7.18;4.13;;;10.80;67.20;;;;;;6209174;28;20068;-73
2021/01/31 08:09:30;;;;;;;13.80;5.78;;;10.80;67.20;;;;;;6185701;28;20049;-71
2021/01/31 08:12:56;;;;;;;10.40;5.15;;;10.80;67.20;;;;;;6179760;28;20455;-70
2021/01/31 08:15:57;;;;;;;11.68;5.25;;;10.70;67.40;;;;;;6111760;29;20043;-70
2021/01/31 08:19:09;;;;;;;12.57;6.40;;;10.80;67.50;;;;;;6127397;29;20071;-69
2021/01/31 08:22:30;;;;;;;16.27;4.88;;;10.80;67.60;;;;;;6112137;29;20122;-70
2021/01/31 08:25:33;;;;;;;10.00;5.00;;;10.80;67.40;;;;;;6111003;29;20071;-70
2021/01/31 08:28:35;;;;;;;9.05;4.22;;;10.80;67.20;;;;;;6127964;29;20039;-71
2021/01/31 08:31:37;;;;;;;11.18;5.20;;;10.80;67.10;;;;;;6127670;29;20122;-70
2021/01/31 08:35:24;;;;;;;10.10;5.35;;;10.80;66.90;;;;;;6096433;29;20440;-70
2021/01/31 08:38:34;;;;;;;8.65;4.20;;;10.80;66.90;;;;;;6122519;29;20111;-70
2021/01/31 08:41:39;;;;;;;12.88;5.07;;;10.90;66.80;;;;;;6126292;29;20032;-70
2021/01/31 08:44:53;;;;;;;12.25;5.40;;;10.90;66.70;;;;;;6125928;29;20131;-70
2021/01/31 08:47:54;;;;;;;11.02;5.22;;;11.00;66.70;;;;;;6101702;29;20039;-69
2021/01/31 08:51:24;;;;;;;11.90;6.03;;;11.00;66.60;;;;;;6127192;29;20040;-69
2021/01/31 08:54:25;;;;;;;3.80;2.55;;;11.00;66.70;;;;;;6224006;28;20030;-70
2021/01/31 08:57:27;;;;;;;8.82;4.35;;;11.10;66.40;;;;;;6207329;28;20042;-69
2021/01/31 09:00:31;;;;;;;8.77;4.85;;;11.20;66.30;;;;;;6208371;28;20034;-70
2021/01/31 09:03:33;;;;;;;11.13;5.93;;;11.20;66.10;;;;;;6225945;28;20030;-69
2021/01/31 13:40:30;;;;;;;8.05;4.13;;;14.40;55.50;;;;;;6231063;28;20452;-74
2021/01/31 13:43:31;;;;;;;9.82;4.18;;;14.30;55.50;;;;;;6223331;28;20091;-74
2021/01/31 13:46:33;;;;;;;7.30;3.72;;;14.30;55.50;;;;;;6206029;28;20046;-76
2021/01/31 13:49:35;;;;;;;22.15;10.02;;;14.30;55.60;;;;;;6194491;28;20084;-74
2021/01/31 13:52:36;;;;;;;9.60;5.13;;;14.30;55.60;;;;;;6189247;28;20037;-75
2021/01/31 13:55:37;;;;;;;9.68;4.00;;;14.40;55.80;;;;;;6205130;28;20045;-74
2021/01/31 13:58:38;;;;;;;5.70;2.85;;;14.40;55.80;;;;;;6204619;28;20033;-73
2021/01/31 14:01:42;;;;;;;9.90;3.78;;;14.40;55.60;;;;;;6203151;28;20033;-72
2021/01/31 14:04:43;;;;;;;7.30;3.55;;;14.40;55.60;;;;;;6203764;28;20114;-74
2021/01/31 14:07:45;;;;;;;7.78;2.90;;;14.50;55.50;;;;;;6221142;28;20355;-73
2021/01/31 14:10:46;;;;;;;6.63;3.35;;;14.40;55.20;;;;;;6203555;28;20038;-75
2021/01/31 14:13:47;;;;;;;5.43;2.60;;;14.40;55.10;;;;;;6204870;28;20037;-74
2021/01/31 14:16:48;;;;;;;5.75;2.92;;;14.40;55.30;;;;;;6221881;28;20466;-74
2021/01/31 14:19:49;;;;;;;8.98;3.85;;;14.40;55.10;;;;;;6186726;28;20034;-73
2021/01/31 14:22:51;;;;;;;8.70;3.75;;;14.50;55.20;;;;;;6188379;28;20100;-74
2021/01/31 14:25:52;;;;;;;6.53;3.28;;;14.50;55.20;;;;;;6204464;28;20057;-73
2021/01/31 14:28:53;;;;;;;6.03;3.10;;;14.50;55.30;;;;;;6185840;28;20119;-74
2021/01/31 14:31:57;;;;;;;7.05;2.95;;;14.60;55.30;;;;;;6199105;28;20086;-73
2021/01/31 14:34:58;;;;;;;5.95;3.15;;;14.60;55.20;;;;;;6202968;28;20041;-73
2021/01/31 14:38:00;;;;;;;5.47;2.85;;;14.70;55.10;;;;;;6204685;28;20038;-73
2021/01/31 14:41:01;;;;;;;5.95;3.08;;;14.70;55.10;;;;;;6189422;28;20066;-74
2021/01/31 14:44:03;;;;;;;4.28;2.50;;;14.70;55.20;;;;;;6188720;28;20041;-75
2021/01/31 14:47:04;;;;;;;6.93;2.95;;;14.80;55.10;;;;;;6195475;28;20045;-73
2021/01/31 14:50:06;;;;;;;5.97;2.72;;;14.80;55.00;;;;;;6194581;28;20161;-74
2021/01/31 14:53:08;;;;;;;4.10;2.53;;;14.80;55.00;;;;;;6182224;28;20049;-74
2021/01/31 14:56:09;;;;;;;6.28;2.67;;;14.80;54.80;;;;;;6204210;28;20050;-73
2021/01/31 14:59:09;;;;;;;6.15;2.83;;;14.80;54.60;;;;;;6207374;28;20474;-74
2021/01/31 15:02:10;;;;;;;5.80;2.83;;;14.80;54.50;;;;;;6220820;28;20041;-74
2021/01/31 15:05:12;;;;;;;3.65;2.33;;;14.80;54.60;;;;;;6203251;28;20086;-75
2021/01/31 15:08:14;;;;;;;4.55;2.72;;;14.80;54.60;;;;;;6221049;28;20475;-73
2021/01/31 15:11:16;;;;;;;5.32;2.05;;;14.80;54.60;;;;;;6204119;28;20044;-75
2021/01/31 15:14:16;;;;;;;3.83;1.90;;;14.90;54.40;;;;;;6188620;28;20044;-73
2021/01/31 15:17:18;;;;;;;4.05;2.00;;;14.90;54.20;;;;;;6221252;28;20042;-73
2021/01/31 15:20:23;;;;;;;3.65;1.92;;;14.90;54.10;;;;;;6202509;28;20038;-73
2021/01/31 15:23:26;;;;;;;3.63;1.90;;;14.90;54.10;;;;;;6199704;28;20096;-73
2021/01/31 15:26:27;;;;;;;3.63;2.00;;;14.90;54.00;;;;;;6219113;28;20053;-73
2021/01/31 15:29:28;;;;;;;2.67;1.85;;;14.90;53.90;;;;;;6228836;28;20034;-75
2021/01/31 15:32:32;;;;;;;4.95;2.25;;;14.90;53.80;;;;;;6231163;28;20045;-78
2021/01/31 15:35:35;;;;;;;2.80;1.75;;;14.80;53.80;;;;;;6199193;28;20515;-76
2021/01/31 15:38:37;;;;;;;4.07;2.10;;;14.80;53.90;;;;;;6210184;28;20038;-72
2021/01/31 15:41:38;;;;;;;6.43;3.03;;;14.80;53.90;;;;;;6225647;28;20048;-71
2021/01/31 15:44:39;;;;;;;7.53;3.78;;;14.80;54.10;;;;;;6210907;28;20038;-71
2021/01/31 15:47:40;;;;;;;9.90;4.13;;;14.80;54.20;;;;;;6203807;28;20125;-73
2021/01/31 15:50:41;;;;;;;11.98;4.20;;;14.70;54.50;;;;;;6201903;28;20431;-73
2021/01/31 15:53:42;;;;;;;9.95;4.47;;;14.70;54.90;;;;;;6219415;28;20079;-74
2021/01/31 15:56:45;;;;;;;8.30;4.40;;;14.60;55.20;;;;;;6207246;28;20356;-72
2021/01/31 15:59:46;;;;;;;9.85;4.60;;;14.60;55.40;;;;;;6201563;28;20065;-74
2021/01/31 16:02:47;;;;;;;8.63;4.25;;;14.50;55.50;;;;;;6211604;28;20379;-73
2021/01/31 16:05:48;;;;;;;9.80;4.03;;;14.50;55.60;;;;;;6191467;28;20124;-73
2021/01/31 16:08:49;;;;;;;9.45;3.47;;;14.50;55.70;;;;;;6240050;28;20520;-73
2021/01/31 16:11:50;;;;;;;7.97;4.43;;;14.50;55.70;;;;;;6222347;28;20037;-73
2021/01/31 16:14:51;;;;;;;6.63;3.80;;;14.50;55.80;;;;;;6203721;28;20048;-73
2021/01/31 16:17:52;;;;;;;5.60;3.25;;;14.50;55.80;;;;;;6227966;28;20340;-74
2021/01/31 16:20:54;;;;;;;8.88;3.42;;;14.50;55.90;;;;;;6204582;28;20074;-78
2021/01/31 16:23:55;;;;;;;7.30;3.45;;;14.40;56.40;;;;;;6191242;28;20416;-87
2021/01/31 16:26:56;;;;;;;9.20;4.15;;;14.40;55.80;;;;;;6221443;28;20081;-75
2021/01/31 16:29:57;;;;;;;8.95;4.15;;;14.30;55.90;;;;;;6210622;28;20034;-75
2021/01/31 16:33:00;;;;;;;8.60;3.33;;;14.30;56.00;;;;;;6204400;28;20061;-74
2021/01/31 16:36:01;;;;;;;6.25;3.35;;;14.30;56.10;;;;;;6204357;28;20076;-74
2021/01/31 16:39:03;;;;;;;8.07;3.53;;;14.30;56.20;;;;;;6205935;28;20026;-74
2021/01/31 16:42:04;;;;;;;13.20;5.43;;;14.20;56.20;;;;;;6221880;28;20046;-74
2021/01/31 16:45:06;;;;;;;34.83;12.98;;;14.20;56.30;;;;;;6211042;28;20391;-75
2021/01/31 16:48:09;;;;;;;25.48;9.55;;;14.20;56.40;;;;;;6233464;28;20038;-74
2021/01/31 16:51:10;;;;;;;11.50;5.75;;;14.10;56.50;;;;;;6192114;28;20046;-72
2021/01/31 16:54:11;;;;;;;9.35;4.68;;;14.10;56.70;;;;;;6228876;28;20533;-73
2021/01/31 16:57:12;;;;;;;20.35;7.65;;;14.10;56.90;;;;;;6194645;28;20037;-73
2021/01/31 17:00:17;;;;;;;11.80;5.97;;;14.00;57.20;;;;;;6188175;28;20540;-73
2021/01/31 17:03:18;;;;;;;19.17;7.50;;;13.90;57.40;;;;;;6227104;28;20114;-73
2021/01/31 17:06:20;;;;;;;34.25;15.35;;;13.80;57.70;;;;;;6190236;28;20121;-73
2021/01/31 17:09:20;;;;;;;19.38;8.57;;;13.70;58.00;;;;;;6193420;28;20473;-74
2021/01/31 17:12:22;;;;;;;24.60;7.90;;;13.60;58.30;;;;;;6209611;28;20034;-74
2021/01/31 17:15:25;;;;;;;19.52;8.75;;;13.60;58.70;;;;;;6215664;28;20040;-73
2021/01/31 17:18:26;;;;;;;29.13;11.32;;;13.50;58.90;;;;;;6213578;28;20438;-73
2021/01/31 17:21:27;;;;;;;20.08;6.90;;;13.40;59.00;;;;;;6201609;28;20026;-73
2021/01/31 17:24:27;;;;;;;18.15;7.30;;;13.40;59.00;;;;;;6217710;28;20531;-73
2021/01/31 17:27:28;;;;;;;15.15;6.47;;;13.30;59.00;;;;;;6238231;28;20049;-75
2021/01/31 17:30:30;;;;;;;14.38;6.00;;;13.30;59.00;;;;;;6223916;28;20042;-73
2021/01/31 17:33:31;;;;;;;10.43;5.20;;;13.30;59.60;;;;;;6220596;28;20053;-73
2021/01/31 17:36:32;;;;;;;12.00;4.90;;;13.30;59.10;;;;;;6216992;28;20041;-73
2021/01/31 17:39:33;;;;;;;13.77;5.32;;;13.30;59.20;;;;;;6218808;28;20081;-74
2021/01/31 17:42:35;;;;;;;9.35;4.63;;;13.20;59.20;;;;;;6238953;28;20041;-73
2021/01/31 17:45:36;;;;;;;16.00;4.32;;;13.30;59.30;;;;;;6244523;28;20029;-74
2021/01/31 17:48:37;;;;;;;11.10;4.85;;;13.30;59.30;;;;;;6222292;28;20466;-71
2021/01/31 17:51:38;;;;;;;13.70;5.32;;;13.30;59.30;;;;;;6236664;28;20021;-73
2021/01/31 17:54:40;;;;;;;25.73;10.52;;;13.30;59.30;;;;;;6211433;28;20071;-73
2021/01/31 17:57:41;;;;;;;69.88;25.58;;;13.30;59.20;;;;;;6227511;28;20133;-73
2021/01/31 18:00:42;;;;;;;97.55;33.63;;;13.30;59.30;;;;;;6196839;28;20416;-73
2021/01/31 18:03:43;;;;;;;65.30;21.45;;;13.40;59.20;;;;;;6219018;28;20538;-73
2021/01/31 18:06:44;;;;;;;37.47;14.55;;;13.40;59.30;;;;;;6215142;28;20058;-72
2021/01/31 18:09:45;;;;;;;35.42;13.77;;;13.30;59.40;;;;;;6196391;28;20418;-74
2021/01/31 18:12:46;;;;;;;51.85;17.83;;;13.30;59.40;;;;;;6204483;28;20029;-72
2021/01/31 18:15:47;;;;;;;27.88;11.20;;;13.20;59.40;;;;;;6204389;28;20137;-71
2021/01/31 18:18:48;;;;;;;48.38;16.85;;;13.20;59.50;;;;;;6211127;28;20033;-73
2021/01/31 18:21:49;;;;;;;73.53;23.13;;;13.20;59.50;;;;;;6223171;28;20117;-72
2021/01/31 18:24:50;;;;;;;40.58;15.50;;;13.20;59.60;;;;;;6217002;28;20042;-72
2021/01/31 18:27:51;;;;;;;26.60;11.18;;;13.10;59.60;;;;;;6218704;28;20071;-73
2021/01/31 18:30:52;;;;;;;31.77;12.32;;;13.10;59.90;;;;;;6210287;28;20038;-74
2021/01/31 18:33:54;;;;;;;17.90;8.18;;;13.10;60.00;;;;;;6203251;28;20483;-73
2021/01/31 18:36:56;;;;;;;26.98;11.75;;;13.00;60.00;;;;;;6214730;28;20045;-73
2021/01/31 18:39:57;;;;;;;34.83;13.55;;;13.10;60.10;;;;;;6214323;28;20132;-73
2021/01/31 18:42:58;;;;;;;43.00;13.85;;;13.10;60.10;;;;;;6234694;28;20476;-75
2021/01/31 18:45:59;;;;;;;43.10;15.75;;;13.10;60.00;;;;;;6221758;28;20379;-75
2021/01/31 18:49:00;;;;;;;17.05;7.07;;;13.10;59.90;;;;;;6238269;28;20064;-76
2021/01/31 18:52:02;;;;;;;15.68;6.90;;;13.20;59.90;;;;;;6246074;28;20138;-74
2021/01/31 18:55:09;;;;;;;28.10;10.10;;;13.20;60.00;;;;;;6229443;28;20038;-74
2021/01/31 18:58:12;;;;;;;25.83;10.63;;;13.10;59.90;;;;;;6192610;28;20038;-74
2021/01/31 19:01:13;;;;;;;15.27;6.78;;;13.10;60.00;;;;;;6209356;28;20343;-74
2021/01/31 19:04:19;;;;;;;18.73;6.80;;;13.00;60.20;;;;;;6241243;28;20034;-74
2021/01/31 19:07:21;;;;;;;19.90;8.70;;;13.00;60.40;;;;;;6206374;28;20044;-74
2021/01/31 19:10:23;;;;;;;12.45;6.47;;;13.00;61.30;;;;;;6205458;28;20038;-73
2021/01/31 19:13:24;;;;;;;19.35;7.78;;;13.00;60.50;;;;;;6205431;28;20029;-73
2021/01/31 19:16:25;;;;;;;23.00;10.35;;;13.10;60.50;;;;;;6206647;28;20376;-73
2021/01/31 19:19:26;;;;;;;21.65;8.38;;;13.10;60.40;;;;;;6234076;28;20049;-73
2021/01/31 19:22:27;;;;;;;16.13;8.23;;;13.10;60.30;;;;;;6239436;28;20113;-69
2021/01/31 19:25:29;;;;;;;18.30;9.30;;;13.20;60.20;;;;;;6216040;28;20033;-72
2021/01/31 19:28:30;;;;;;;17.73;10.38;;;13.20;60.10;;;;;;6233740;28;20096;-73
2021/01/31 19:31:31;;;;;;;21.92;10.50;;;13.20;60.00;;;;;;6204254;28;20033;-73
2021/01/31 19:34:34;;;;;;;24.15;10.77;;;13.20;59.90;;;;;;6205947;28;20033;-73
2021/01/31 19:37:35;;;;;;;29.65;14.32;;;13.20;59.90;;;;;;6207558;28;20069;-73
2021/01/31 19:40:36;;;;;;;30.02;14.45;;;13.20;60.00;;;;;;6243157;28;20075;-74
2021/01/31 19:43:38;;;;;;;26.38;13.00;;;13.10;60.00;;;;;;6246215;28;20508;-74
2021/01/31 19:46:39;;;;;;;23.35;12.07;;;13.20;60.10;;;;;;6227016;28;20033;-73
2021/01/31 19:49:40;;;;;;;22.33;11.93;;;13.20;60.10;;;;;;6248493;28;20124;-74
2021/01/31 19:52:41;;;;;;;23.77;11.38;;;13.20;60.10;;;;;;6245839;28;20117;-73
2021/01/31 19:55:42;;;;;;;26.77;11.27;;;13.20;60.00;;;;;;6224943;28;20044;-75
2021/01/31 19:58:43;;;;;;;23.58;11.70;;;13.30;60.10;;;;;;6223549;28;20034;-74
2021/01/31 20:01:44;;;;;;;23.27;12.90;;;13.30;60.20;;;;;;6244207;28;20116;-74
2021/01/31 20:04:45;;;;;;;24.45;12.23;;;13.30;60.30;;;;;;6226479;28;20045;-74
2021/01/31 20:07:48;;;;;;;27.27;11.68;;;13.30;61.20;;;;;;6226642;28;20180;-74
2021/01/31 20:10:49;;;;;;;26.58;8.80;;;13.30;60.40;;;;;;6215404;28;20061;-72
2021/01/31 20:13:51;;;;;;;16.25;7.20;;;13.30;60.40;;;;;;6243861;28;20106;-73
2021/01/31 20:16:53;;;;;;;15.23;7.20;;;13.30;60.40;;;;;;6225062;28;20038;-74
2021/01/31 20:19:54;;;;;;;14.15;6.78;;;13.30;60.40;;;;;;6212130;28;20034;-75
2021/01/31 20:22:56;;;;;;;14.73;6.70;;;13.30;60.30;;;;;;6204359;28;20060;-73
2021/01/31 20:25:57;;;;;;;18.13;7.53;;;13.30;60.30;;;;;;6214843;28;20415;-73
2021/01/31 20:28:58;;;;;;;15.88;7.15;;;13.30;60.30;;;;;;6218653;28;20044;-75
2021/01/31 20:31:59;;;;;;;14.15;6.50;;;13.30;60.30;;;;;;6249347;28;20052;-73
2021/01/31 20:35:00;;;;;;;13.90;6.05;;;13.30;60.30;;;;;;6206822;28;20031;-71